sensor_id;sensor_type;location;lat;lon;timestamp;temperature;humidity
70986;DHT22;58645;43.068;25.610;2023-06-14T00:01:51;18.60;99.90
70986;DHT22;58645;43.068;25.610;2023-06-14T00:04:17;18.60;99.90
70986;DHT22;58645;43.068;25.610;2023-06-14T00:06:44;18.60;99.90
70986;DHT22;58645;43.068;25.610;2023-06-14T00:09:14;18.60;99.90
70986;DHT22;58645;43.068;25.610;2023-06-14T00:11:41;18.60;99.90
70986;DHT22;58645;43.068;25.610;2023-06-14T00:14:06;18.50;99.90
70986;DHT22;58645;43.068;25.610;2023-06-14T00:16:32;18.50;99.90
70986;DHT22;58645;43.068;25.610;2023-06-14T00:19:03;18.50;99.90
70986;DHT22;58645;43.068;25.610;2023-06-14T00:21:32;18.50;99.90
70986;DHT22;58645;43.068;25.610;2023-06-14T00:23:58;18.40;99.90
70986;DHT22;58645;43.068;25.610;2023-06-14T00:26:25;18.40;99.90
70986;DHT22;58645;43.068;25.610;2023-06-14T00:28:52;18.50;99.90
70986;DHT22;58645;43.068;25.610;2023-06-14T00:31:17;18.40;99.90
70986;DHT22;58645;43.068;25.610;2023-06-14T00:33:43;18.50;99.90
70986;DHT22;58645;43.068;25.610;2023-06-14T00:36:09;18.50;99.90
70986;DHT22;58645;43.068;25.610;2023-06-14T00:38:35;18.40;99.90
70986;DHT22;58645;43.068;25.610;2023-06-14T00:41:01;18.40;99.90
70986;DHT22;58645;43.068;25.610;2023-06-14T00:43:26;18.40;99.90
70986;DHT22;58645;43.068;25.610;2023-06-14T00:45:52;18.30;99.90
70986;DHT22;58645;43.068;25.610;2023-06-14T00:48:18;18.30;99.90
70986;DHT22;58645;43.068;25.610;2023-06-14T00:50:45;18.30;99.90
70986;DHT22;58645;43.068;25.610;2023-06-14T00:53:15;18.20;99.90
70986;DHT22;58645;43.068;25.610;2023-06-14T00:55:41;18.20;99.90
70986;DHT22;58645;43.068;25.610;2023-06-14T00:58:07;18.20;99.90
70986;DHT22;58645;43.068;25.610;2023-06-14T01:00:34;18.10;99.90
70986;DHT22;58645;43.068;25.610;2023-06-14T01:02:59;18.10;99.90
70986;DHT22;58645;43.068;25.610;2023-06-14T01:05:26;18.10;99.90
70986;DHT22;58645;43.068;25.610;2023-06-14T01:11:02;18.00;99.90
70986;DHT22;58645;43.068;25.610;2023-06-14T01:13:35;18.00;99.90
70986;DHT22;58645;43.068;25.610;2023-06-14T01:16:02;17.90;99.90
70986;DHT22;58645;43.068;25.610;2023-06-14T01:18:29;17.80;99.90
70986;DHT22;58645;43.068;25.610;2023-06-14T01:20:55;17.80;99.90
70986;DHT22;58645;43.068;25.610;2023-06-14T01:23:22;17.80;99.90
70986;DHT22;58645;43.068;25.610;2023-06-14T01:25:49;17.80;99.90
70986;DHT22;58645;43.068;25.610;2023-06-14T01:28:20;17.80;99.90
70986;DHT22;58645;43.068;25.610;2023-06-14T01:30:51;17.80;99.90
70986;DHT22;58645;43.068;25.610;2023-06-14T01:33:20;17.70;99.90
70986;DHT22;58645;43.068;25.610;2023-06-14T01:35:48;17.70;99.90
70986;DHT22;58645;43.068;25.610;2023-06-14T01:38:14;17.60;99.90
70986;DHT22;58645;43.068;25.610;2023-06-14T01:40:43;17.60;99.90
70986;DHT22;58645;43.068;25.610;2023-06-14T01:43:11;17.50;99.90
70986;DHT22;58645;43.068;25.610;2023-06-14T01:45:40;17.50;99.90
70986;DHT22;58645;43.068;25.610;2023-06-14T01:48:06;17.50;99.90
70986;DHT22;58645;43.068;25.610;2023-06-14T01:50:32;17.50;99.90
70986;DHT22;58645;43.068;25.610;2023-06-14T01:52:58;17.40;99.90
70986;DHT22;58645;43.068;25.610;2023-06-14T01:55:24;17.40;99.90
70986;DHT22;58645;43.068;25.610;2023-06-14T01:57:53;17.40;99.90
70986;DHT22;58645;43.068;25.610;2023-06-14T02:00:19;17.40;99.90
70986;DHT22;58645;43.068;25.610;2023-06-14T02:02:47;17.40;99.90
70986;DHT22;58645;43.068;25.610;2023-06-14T02:05:13;17.40;99.90
70986;DHT22;58645;43.068;25.610;2023-06-14T02:07:39;17.40;99.90
70986;DHT22;58645;43.068;25.610;2023-06-14T02:10:05;17.40;99.90
70986;DHT22;58645;43.068;25.610;2023-06-14T02:12:31;17.40;99.90
70986;DHT22;58645;43.068;25.610;2023-06-14T02:14:57;17.40;99.90
70986;DHT22;58645;43.068;25.610;2023-06-14T02:17:23;17.30;99.90
70986;DHT22;58645;43.068;25.610;2023-06-14T02:19:49;17.30;99.90
70986;DHT22;58645;43.068;25.610;2023-06-14T02:22:16;17.40;99.90
70986;DHT22;58645;43.068;25.610;2023-06-14T02:24:42;17.30;99.90
70986;DHT22;58645;43.068;25.610;2023-06-14T02:27:08;17.30;99.90
70986;DHT22;58645;43.068;25.610;2023-06-14T02:29:37;17.30;99.90
70986;DHT22;58645;43.068;25.610;2023-06-14T02:32:04;17.30;99.90
70986;DHT22;58645;43.068;25.610;2023-06-14T02:34:30;17.20;99.90
70986;DHT22;58645;43.068;25.610;2023-06-14T02:36:55;17.20;99.90
70986;DHT22;58645;43.068;25.610;2023-06-14T02:39:21;17.20;99.90
70986;DHT22;58645;43.068;25.610;2023-06-14T02:41:49;17.10;99.90
70986;DHT22;58645;43.068;25.610;2023-06-14T02:44:17;17.20;99.90
70986;DHT22;58645;43.068;25.610;2023-06-14T02:46:44;17.20;99.90
70986;DHT22;58645;43.068;25.610;2023-06-14T02:49:11;17.20;99.90
70986;DHT22;58645;43.068;25.610;2023-06-14T02:51:36;17.20;99.90
70986;DHT22;58645;43.068;25.610;2023-06-14T02:54:02;17.20;99.90
70986;DHT22;58645;43.068;25.610;2023-06-14T02:56:29;17.20;99.90
70986;DHT22;58645;43.068;25.610;2023-06-14T02:58:55;17.20;99.90
70986;DHT22;58645;43.068;25.610;2023-06-14T03:01:20;17.20;99.90
70986;DHT22;58645;43.068;25.610;2023-06-14T03:03:47;17.20;99.90
70986;DHT22;58645;43.068;25.610;2023-06-14T03:06:13;17.20;99.90
70986;DHT22;58645;43.068;25.610;2023-06-14T03:08:42;17.20;99.90
70986;DHT22;58645;43.068;25.610;2023-06-14T03:11:09;17.20;99.90
70986;DHT22;58645;43.068;25.610;2023-06-14T03:13:35;17.30;99.90
70986;DHT22;58645;43.068;25.610;2023-06-14T03:16:01;17.30;99.90
70986;DHT22;58645;43.068;25.610;2023-06-14T03:18:30;17.40;99.90
70986;DHT22;58645;43.068;25.610;2023-06-14T03:21:01;17.50;99.90
70986;DHT22;58645;43.068;25.610;2023-06-14T03:23:28;17.50;99.90
70986;DHT22;58645;43.068;25.610;2023-06-14T03:25:53;17.60;99.90
70986;DHT22;58645;43.068;25.610;2023-06-14T03:28:19;17.60;99.90
70986;DHT22;58645;43.068;25.610;2023-06-14T03:30:45;17.60;99.90
70986;DHT22;58645;43.068;25.610;2023-06-14T03:33:11;17.60;99.90
70986;DHT22;58645;43.068;25.610;2023-06-14T03:35:37;17.70;99.90
70986;DHT22;58645;43.068;25.610;2023-06-14T03:38:02;17.80;99.90
70986;DHT22;58645;43.068;25.610;2023-06-14T03:40:29;17.80;99.90
70986;DHT22;58645;43.068;25.610;2023-06-14T03:42:55;17.90;99.90
70986;DHT22;58645;43.068;25.610;2023-06-14T03:45:21;18.00;99.90
70986;DHT22;58645;43.068;25.610;2023-06-14T03:47:47;18.10;99.90
70986;DHT22;58645;43.068;25.610;2023-06-14T03:50:13;18.20;99.90
70986;DHT22;58645;43.068;25.610;2023-06-14T03:52:39;18.30;99.90
70986;DHT22;58645;43.068;25.610;2023-06-14T03:55:05;18.30;99.90
70986;DHT22;58645;43.068;25.610;2023-06-14T03:57:32;18.40;99.90
70986;DHT22;58645;43.068;25.610;2023-06-14T03:59:57;18.40;99.90
70986;DHT22;58645;43.068;25.610;2023-06-14T04:02:23;18.40;99.90
70986;DHT22;58645;43.068;25.610;2023-06-14T04:04:49;18.40;99.90
70986;DHT22;58645;43.068;25.610;2023-06-14T04:07:15;18.40;99.90
70986;DHT22;58645;43.068;25.610;2023-06-14T04:09:44;18.40;99.90
70986;DHT22;58645;43.068;25.610;2023-06-14T04:12:10;18.40;99.90
70986;DHT22;58645;43.068;25.610;2023-06-14T04:14:39;18.50;99.90
70986;DHT22;58645;43.068;25.610;2023-06-14T04:17:06;18.50;99.90
70986;DHT22;58645;43.068;25.610;2023-06-14T04:19:31;18.50;99.90
70986;DHT22;58645;43.068;25.610;2023-06-14T04:21:58;18.50;99.90
70986;DHT22;58645;43.068;25.610;2023-06-14T04:24:26;18.60;99.90
70986;DHT22;58645;43.068;25.610;2023-06-14T04:26:58;18.50;99.90
70986;DHT22;58645;43.068;25.610;2023-06-14T04:29:25;18.60;99.90
70986;DHT22;58645;43.068;25.610;2023-06-14T04:31:53;18.60;99.90
70986;DHT22;58645;43.068;25.610;2023-06-14T04:34:20;18.60;99.90
70986;DHT22;58645;43.068;25.610;2023-06-14T04:36:47;18.60;99.90
70986;DHT22;58645;43.068;25.610;2023-06-14T04:39:24;18.60;99.90
70986;DHT22;58645;43.068;25.610;2023-06-14T04:41:59;18.60;99.90
70986;DHT22;58645;43.068;25.610;2023-06-14T04:44:29;18.60;99.90
70986;DHT22;58645;43.068;25.610;2023-06-14T04:46:57;18.50;99.90
70986;DHT22;58645;43.068;25.610;2023-06-14T04:49:24;18.40;99.90
70986;DHT22;58645;43.068;25.610;2023-06-14T04:51:53;18.50;99.90
70986;DHT22;58645;43.068;25.610;2023-06-14T04:54:24;18.40;99.90
70986;DHT22;58645;43.068;25.610;2023-06-14T04:57:05;18.40;99.90
70986;DHT22;58645;43.068;25.610;2023-06-14T05:02:32;18.40;99.90
70986;DHT22;58645;43.068;25.610;2023-06-14T05:05:12;18.60;99.90
70986;DHT22;58645;43.068;25.610;2023-06-14T05:07:42;18.60;99.90
70986;DHT22;58645;43.068;25.610;2023-06-14T05:10:08;18.70;99.90
70986;DHT22;58645;43.068;25.610;2023-06-14T05:12:51;18.80;99.90
70986;DHT22;58645;43.068;25.610;2023-06-14T05:18:40;18.90;99.90
70986;DHT22;58645;43.068;25.610;2023-06-14T05:21:05;18.80;99.90
70986;DHT22;58645;43.068;25.610;2023-06-14T05:23:31;18.80;99.90
70986;DHT22;58645;43.068;25.610;2023-06-14T05:25:57;18.80;99.90
70986;DHT22;58645;43.068;25.610;2023-06-14T05:28:24;18.80;99.90
70986;DHT22;58645;43.068;25.610;2023-06-14T05:30:50;18.80;99.90
70986;DHT22;58645;43.068;25.610;2023-06-14T05:33:22;18.80;99.90
70986;DHT22;58645;43.068;25.610;2023-06-14T05:35:48;18.90;99.90
70986;DHT22;58645;43.068;25.610;2023-06-14T05:38:17;18.80;99.90
70986;DHT22;58645;43.068;25.610;2023-06-14T05:40:46;18.90;99.90
70986;DHT22;58645;43.068;25.610;2023-06-14T05:43:38;18.90;99.90
70986;DHT22;58645;43.068;25.610;2023-06-14T05:46:16;19.00;99.90
70986;DHT22;58645;43.068;25.610;2023-06-14T05:48:48;19.00;99.90
70986;DHT22;58645;43.068;25.610;2023-06-14T05:55:10;19.10;99.90
70986;DHT22;58645;43.068;25.610;2023-06-14T05:57:38;19.10;99.90
70986;DHT22;58645;43.068;25.610;2023-06-14T06:00:07;19.30;99.90
70986;DHT22;58645;43.068;25.610;2023-06-14T06:02:49;19.40;99.90
70986;DHT22;58645;43.068;25.610;2023-06-14T06:05:17;19.60;99.90
70986;DHT22;58645;43.068;25.610;2023-06-14T06:11:24;19.90;99.90
70986;DHT22;58645;43.068;25.610;2023-06-14T06:14:09;20.10;99.90
70986;DHT22;58645;43.068;25.610;2023-06-14T06:17:12;20.30;99.90
70986;DHT22;58645;43.068;25.610;2023-06-14T06:19:38;20.50;99.90
70986;DHT22;58645;43.068;25.610;2023-06-14T06:26:01;20.90;99.90
70986;DHT22;58645;43.068;25.610;2023-06-14T06:28:27;21.00;99.90
70986;DHT22;58645;43.068;25.610;2023-06-14T06:30:54;21.30;99.90
70986;DHT22;58645;43.068;25.610;2023-06-14T06:33:20;21.50;99.90
70986;DHT22;58645;43.068;25.610;2023-06-14T06:35:45;21.70;99.90
70986;DHT22;58645;43.068;25.610;2023-06-14T06:38:11;21.90;99.90
70986;DHT22;58645;43.068;25.610;2023-06-14T06:40:37;22.10;99.90
70986;DHT22;58645;43.068;25.610;2023-06-14T06:43:03;22.20;99.90
70986;DHT22;58645;43.068;25.610;2023-06-14T06:45:28;22.40;99.90
70986;DHT22;58645;43.068;25.610;2023-06-14T06:47:54;22.50;99.90
70986;DHT22;58645;43.068;25.610;2023-06-14T06:50:21;22.60;99.90
70986;DHT22;58645;43.068;25.610;2023-06-14T06:52:49;22.70;99.90
70986;DHT22;58645;43.068;25.610;2023-06-14T06:55:14;22.80;99.90
70986;DHT22;58645;43.068;25.610;2023-06-14T06:57:40;22.70;99.90
70986;DHT22;58645;43.068;25.610;2023-06-14T07:00:07;22.80;99.90
70986;DHT22;58645;43.068;25.610;2023-06-14T07:02:36;23.00;99.90
70986;DHT22;58645;43.068;25.610;2023-06-14T07:05:02;23.10;99.90
70986;DHT22;58645;43.068;25.610;2023-06-14T07:07:28;23.10;99.90
70986;DHT22;58645;43.068;25.610;2023-06-14T07:09:54;23.20;99.90
70986;DHT22;58645;43.068;25.610;2023-06-14T07:12:19;23.40;99.90
70986;DHT22;58645;43.068;25.610;2023-06-14T07:14:47;23.60;99.90
70986;DHT22;58645;43.068;25.610;2023-06-14T07:17:16;23.90;99.90
70986;DHT22;58645;43.068;25.610;2023-06-14T07:19:45;24.00;99.90
70986;DHT22;58645;43.068;25.610;2023-06-14T07:22:11;24.20;99.90
70986;DHT22;58645;43.068;25.610;2023-06-14T07:24:39;24.00;99.70
70986;DHT22;58645;43.068;25.610;2023-06-14T07:27:06;24.00;99.60
70986;DHT22;58645;43.068;25.610;2023-06-14T07:29:33;24.20;99.40
70986;DHT22;58645;43.068;25.610;2023-06-14T07:32:01;24.20;98.10
70986;DHT22;58645;43.068;25.610;2023-06-14T07:34:27;23.80;99.40
70986;DHT22;58645;43.068;25.610;2023-06-14T07:36:55;23.90;99.40
70986;DHT22;58645;43.068;25.610;2023-06-14T07:39:21;24.30;99.00
70986;DHT22;58645;43.068;25.610;2023-06-14T07:41:47;24.40;96.90
70986;DHT22;58645;43.068;25.610;2023-06-14T07:44:13;24.50;96.80
70986;DHT22;58645;43.068;25.610;2023-06-14T07:46:40;24.30;96.50
70986;DHT22;58645;43.068;25.610;2023-06-14T07:49:06;24.60;96.90
70986;DHT22;58645;43.068;25.610;2023-06-14T07:51:32;24.70;95.30
70986;DHT22;58645;43.068;25.610;2023-06-14T07:54:09;24.80;93.90
70986;DHT22;58645;43.068;25.610;2023-06-14T07:56:35;24.80;93.90
70986;DHT22;58645;43.068;25.610;2023-06-14T07:59:01;24.80;93.30
70986;DHT22;58645;43.068;25.610;2023-06-14T08:01:26;25.00;92.70
70986;DHT22;58645;43.068;25.610;2023-06-14T08:03:53;24.90;92.90
70986;DHT22;58645;43.068;25.610;2023-06-14T08:06:19;25.20;91.30
70986;DHT22;58645;43.068;25.610;2023-06-14T08:08:45;25.40;90.70
70986;DHT22;58645;43.068;25.610;2023-06-14T08:11:11;25.50;89.50
70986;DHT22;58645;43.068;25.610;2023-06-14T08:13:36;25.40;88.80
70986;DHT22;58645;43.068;25.610;2023-06-14T08:16:03;25.30;88.60
70986;DHT22;58645;43.068;25.610;2023-06-14T08:18:30;25.20;88.10
70986;DHT22;58645;43.068;25.610;2023-06-14T08:20:56;25.30;88.30
70986;DHT22;58645;43.068;25.610;2023-06-14T08:23:23;25.70;87.10
70986;DHT22;58645;43.068;25.610;2023-06-14T08:25:49;26.00;86.00
70986;DHT22;58645;43.068;25.610;2023-06-14T08:28:15;26.40;84.40
70986;DHT22;58645;43.068;25.610;2023-06-14T08:30:44;26.80;82.70
70986;DHT22;58645;43.068;25.610;2023-06-14T08:33:09;27.30;82.20
70986;DHT22;58645;43.068;25.610;2023-06-14T08:35:38;27.60;78.60
70986;DHT22;58645;43.068;25.610;2023-06-14T08:38:07;27.70;78.30
70986;DHT22;58645;43.068;25.610;2023-06-14T08:40:37;27.90;76.20
70986;DHT22;58645;43.068;25.610;2023-06-14T08:43:02;28.20;75.80
70986;DHT22;58645;43.068;25.610;2023-06-14T08:45:28;28.70;73.60
70986;DHT22;58645;43.068;25.610;2023-06-14T08:47:54;28.80;71.60
70986;DHT22;58645;43.068;25.610;2023-06-14T08:50:24;28.70;70.80
70986;DHT22;58645;43.068;25.610;2023-06-14T08:52:57;28.30;71.00
70986;DHT22;58645;43.068;25.610;2023-06-14T08:55:28;28.70;71.00
70986;DHT22;58645;43.068;25.610;2023-06-14T08:57:56;29.20;70.40
70986;DHT22;58645;43.068;25.610;2023-06-14T09:00:32;29.50;68.50
70986;DHT22;58645;43.068;25.610;2023-06-14T09:02:58;29.40;66.60
70986;DHT22;58645;43.068;25.610;2023-06-14T09:05:27;29.20;68.10
70986;DHT22;58645;43.068;25.610;2023-06-14T09:07:54;29.30;67.20
70986;DHT22;58645;43.068;25.610;2023-06-14T09:10:22;29.50;68.60
70986;DHT22;58645;43.068;25.610;2023-06-14T09:12:48;29.60;68.10
70986;DHT22;58645;43.068;25.610;2023-06-14T09:15:14;29.50;66.50
70986;DHT22;58645;43.068;25.610;2023-06-14T09:17:41;29.70;66.80
70986;DHT22;58645;43.068;25.610;2023-06-14T09:20:08;29.50;64.50
70986;DHT22;58645;43.068;25.610;2023-06-14T09:22:39;29.20;65.40
70986;DHT22;58645;43.068;25.610;2023-06-14T09:25:14;29.10;62.80
70986;DHT22;58645;43.068;25.610;2023-06-14T09:27:56;29.90;61.90
70986;DHT22;58645;43.068;25.610;2023-06-14T09:30:23;29.60;62.00
70986;DHT22;58645;43.068;25.610;2023-06-14T09:32:52;29.90;60.70
70986;DHT22;58645;43.068;25.610;2023-06-14T09:35:18;29.80;59.70
70986;DHT22;58645;43.068;25.610;2023-06-14T09:37:47;29.70;59.90
70986;DHT22;58645;43.068;25.610;2023-06-14T09:40:13;29.80;60.10
70986;DHT22;58645;43.068;25.610;2023-06-14T09:42:39;29.40;60.20
70986;DHT22;58645;43.068;25.610;2023-06-14T09:45:07;29.50;60.90
70986;DHT22;58645;43.068;25.610;2023-06-14T09:47:34;29.60;61.00
70986;DHT22;58645;43.068;25.610;2023-06-14T09:49:59;29.70;60.70
70986;DHT22;58645;43.068;25.610;2023-06-14T09:52:27;29.70;60.00
70986;DHT22;58645;43.068;25.610;2023-06-14T09:54:55;29.60;60.90
70986;DHT22;58645;43.068;25.610;2023-06-14T09:57:22;29.50;60.30
70986;DHT22;58645;43.068;25.610;2023-06-14T09:59:53;29.60;60.90
70986;DHT22;58645;43.068;25.610;2023-06-14T10:02:29;29.60;60.00
70986;DHT22;58645;43.068;25.610;2023-06-14T10:05:05;28.80;59.30
70986;DHT22;58645;43.068;25.610;2023-06-14T10:07:44;29.30;57.50
70986;DHT22;58645;43.068;25.610;2023-06-14T10:10:14;29.60;57.00
70986;DHT22;58645;43.068;25.610;2023-06-14T10:12:40;29.40;57.30
70986;DHT22;58645;43.068;25.610;2023-06-14T10:15:09;29.40;57.30
70986;DHT22;58645;43.068;25.610;2023-06-14T10:17:44;29.40;56.80
70986;DHT22;58645;43.068;25.610;2023-06-14T10:23:23;29.20;58.10
70986;DHT22;58645;43.068;25.610;2023-06-14T10:25:54;29.10;57.80
70986;DHT22;58645;43.068;25.610;2023-06-14T10:28:24;29.30;57.80
70986;DHT22;58645;43.068;25.610;2023-06-14T10:31:09;29.40;57.50
70986;DHT22;58645;43.068;25.610;2023-06-14T10:33:41;29.30;57.90
70986;DHT22;58645;43.068;25.610;2023-06-14T10:39:00;29.30;58.50
70986;DHT22;58645;43.068;25.610;2023-06-14T10:41:29;29.00;58.60
70986;DHT22;58645;43.068;25.610;2023-06-14T10:46:40;29.20;58.80
70986;DHT22;58645;43.068;25.610;2023-06-14T10:49:06;28.90;57.40
70986;DHT22;58645;43.068;25.610;2023-06-14T10:51:41;28.90;56.70
70986;DHT22;58645;43.068;25.610;2023-06-14T10:54:12;29.00;56.80
70986;DHT22;58645;43.068;25.610;2023-06-14T10:56:53;29.20;56.80
70986;DHT22;58645;43.068;25.610;2023-06-14T10:59:20;29.30;56.00
70986;DHT22;58645;43.068;25.610;2023-06-14T11:04:16;29.30;56.10
70986;DHT22;58645;43.068;25.610;2023-06-14T11:06:49;29.10;57.80
70986;DHT22;58645;43.068;25.610;2023-06-14T11:12:02;29.30;58.10
70986;DHT22;58645;43.068;25.610;2023-06-14T11:14:31;29.50;58.10
70986;DHT22;58645;43.068;25.610;2023-06-14T11:16:57;29.70;56.20
70986;DHT22;58645;43.068;25.610;2023-06-14T11:19:23;30.00;55.60
70986;DHT22;58645;43.068;25.610;2023-06-14T11:21:49;30.00;55.00
70986;DHT22;58645;43.068;25.610;2023-06-14T11:24:16;29.90;54.80
70986;DHT22;58645;43.068;25.610;2023-06-14T11:26:42;29.70;54.40
70986;DHT22;58645;43.068;25.610;2023-06-14T11:29:08;29.50;54.50
70986;DHT22;58645;43.068;25.610;2023-06-14T11:31:36;29.60;55.10
70986;DHT22;58645;43.068;25.610;2023-06-14T11:34:02;29.60;54.10
70986;DHT22;58645;43.068;25.610;2023-06-14T11:36:30;29.40;54.30
70986;DHT22;58645;43.068;25.610;2023-06-14T11:39:00;29.60;55.20
70986;DHT22;58645;43.068;25.610;2023-06-14T11:41:31;29.90;53.50
70986;DHT22;58645;43.068;25.610;2023-06-14T11:43:57;30.00;52.50
70986;DHT22;58645;43.068;25.610;2023-06-14T11:46:25;30.50;52.90
70986;DHT22;58645;43.068;25.610;2023-06-14T11:48:51;31.20;54.40
70986;DHT22;58645;43.068;25.610;2023-06-14T11:51:19;31.10;51.20
70986;DHT22;58645;43.068;25.610;2023-06-14T11:53:44;30.90;51.70
70986;DHT22;58645;43.068;25.610;2023-06-14T11:56:11;30.60;53.00
70986;DHT22;58645;43.068;25.610;2023-06-14T11:58:37;30.50;52.70
70986;DHT22;58645;43.068;25.610;2023-06-14T12:01:03;30.20;53.70
70986;DHT22;58645;43.068;25.610;2023-06-14T12:03:29;29.70;53.70
70986;DHT22;58645;43.068;25.610;2023-06-14T12:06:08;29.60;54.80
70986;DHT22;58645;43.068;25.610;2023-06-14T12:08:38;29.60;54.10
70986;DHT22;58645;43.068;25.610;2023-06-14T12:11:13;29.80;53.80
70986;DHT22;58645;43.068;25.610;2023-06-14T12:13:41;30.00;54.20
70986;DHT22;58645;43.068;25.610;2023-06-14T12:16:11;30.20;53.50
70986;DHT22;58645;43.068;25.610;2023-06-14T12:18:39;30.10;51.40
70986;DHT22;58645;43.068;25.610;2023-06-14T12:21:06;30.30;51.50
70986;DHT22;58645;43.068;25.610;2023-06-14T12:23:49;30.10;51.40
70986;DHT22;58645;43.068;25.610;2023-06-14T12:26:19;29.70;51.60
70986;DHT22;58645;43.068;25.610;2023-06-14T12:28:46;29.20;52.20
70986;DHT22;58645;43.068;25.610;2023-06-14T12:31:13;29.00;52.90
70986;DHT22;58645;43.068;25.610;2023-06-14T12:33:39;29.20;52.60
70986;DHT22;58645;43.068;25.610;2023-06-14T12:36:07;29.20;52.90
70986;DHT22;58645;43.068;25.610;2023-06-14T12:38:34;29.30;52.00
70986;DHT22;58645;43.068;25.610;2023-06-14T12:41:00;29.90;52.10
70986;DHT22;58645;43.068;25.610;2023-06-14T12:43:26;30.00;51.20
70986;DHT22;58645;43.068;25.610;2023-06-14T12:45:51;29.90;49.90
70986;DHT22;58645;43.068;25.610;2023-06-14T12:48:17;29.80;50.70
70986;DHT22;58645;43.068;25.610;2023-06-14T12:50:43;29.80;50.50
70986;DHT22;58645;43.068;25.610;2023-06-14T12:53:09;29.70;50.80
70986;DHT22;58645;43.068;25.610;2023-06-14T12:55:34;29.80;50.80
70986;DHT22;58645;43.068;25.610;2023-06-14T12:58:00;29.90;49.80
70986;DHT22;58645;43.068;25.610;2023-06-14T13:00:26;30.20;50.80
70986;DHT22;58645;43.068;25.610;2023-06-14T13:02:52;29.90;50.20
70986;DHT22;58645;43.068;25.610;2023-06-14T13:05:18;29.90;50.20
70986;DHT22;58645;43.068;25.610;2023-06-14T13:07:44;29.90;50.50
70986;DHT22;58645;43.068;25.610;2023-06-14T13:10:10;29.50;50.90
70986;DHT22;58645;43.068;25.610;2023-06-14T13:12:36;29.20;51.70
70986;DHT22;58645;43.068;25.610;2023-06-14T13:15:02;29.10;52.00
70986;DHT22;58645;43.068;25.610;2023-06-14T13:17:28;29.10;52.40
70986;DHT22;58645;43.068;25.610;2023-06-14T13:19:53;29.00;52.80
70986;DHT22;58645;43.068;25.610;2023-06-14T13:22:19;29.10;52.40
70986;DHT22;58645;43.068;25.610;2023-06-14T13:24:45;29.10;51.50
70986;DHT22;58645;43.068;25.610;2023-06-14T13:27:11;29.00;52.00
70986;DHT22;58645;43.068;25.610;2023-06-14T13:29:40;28.80;52.40
70986;DHT22;58645;43.068;25.610;2023-06-14T13:32:06;28.40;54.20
70986;DHT22;58645;43.068;25.610;2023-06-14T13:34:32;28.40;54.00
70986;DHT22;58645;43.068;25.610;2023-06-14T13:36:58;28.20;54.50
70986;DHT22;58645;43.068;25.610;2023-06-14T13:39:25;28.30;54.70
70986;DHT22;58645;43.068;25.610;2023-06-14T13:41:51;28.20;55.60
70986;DHT22;58645;43.068;25.610;2023-06-14T13:44:16;28.10;55.60
70986;DHT22;58645;43.068;25.610;2023-06-14T13:46:44;28.10;54.90
70986;DHT22;58645;43.068;25.610;2023-06-14T13:49:10;28.00;54.90
70986;DHT22;58645;43.068;25.610;2023-06-14T13:51:37;28.00;55.30
70986;DHT22;58645;43.068;25.610;2023-06-14T13:54:03;27.90;55.00
70986;DHT22;58645;43.068;25.610;2023-06-14T13:56:29;27.90;55.60
70986;DHT22;58645;43.068;25.610;2023-06-14T13:58:55;27.90;55.80
70986;DHT22;58645;43.068;25.610;2023-06-14T14:01:21;27.80;56.50
70986;DHT22;58645;43.068;25.610;2023-06-14T14:03:48;27.70;57.50
70986;DHT22;58645;43.068;25.610;2023-06-14T14:06:15;27.70;56.90
70986;DHT22;58645;43.068;25.610;2023-06-14T14:08:41;27.80;56.80
70986;DHT22;58645;43.068;25.610;2023-06-14T14:11:08;27.80;56.10
70986;DHT22;58645;43.068;25.610;2023-06-14T14:13:35;27.90;56.60
70986;DHT22;58645;43.068;25.610;2023-06-14T14:16:02;27.80;56.50
70986;DHT22;58645;43.068;25.610;2023-06-14T14:18:28;27.80;56.50
70986;DHT22;58645;43.068;25.610;2023-06-14T14:20:54;27.90;57.00
70986;DHT22;58645;43.068;25.610;2023-06-14T14:23:21;28.00;57.60
70986;DHT22;58645;43.068;25.610;2023-06-14T14:25:47;28.00;57.50
70986;DHT22;58645;43.068;25.610;2023-06-14T14:28:13;27.80;57.30
70986;DHT22;58645;43.068;25.610;2023-06-14T14:30:42;27.70;57.80
70986;DHT22;58645;43.068;25.610;2023-06-14T14:33:08;27.60;58.70
70986;DHT22;58645;43.068;25.610;2023-06-14T14:35:34;27.30;59.20
70986;DHT22;58645;43.068;25.610;2023-06-14T14:38:00;27.20;59.60
70986;DHT22;58645;43.068;25.610;2023-06-14T14:40:26;27.20;60.70
70986;DHT22;58645;43.068;25.610;2023-06-14T14:42:52;27.30;60.90
70986;DHT22;58645;43.068;25.610;2023-06-14T14:45:17;27.20;61.20
70986;DHT22;58645;43.068;25.610;2023-06-14T14:47:43;27.20;60.90
70986;DHT22;58645;43.068;25.610;2023-06-14T14:50:09;27.10;61.30
70986;DHT22;58645;43.068;25.610;2023-06-14T14:52:36;27.10;61.50
70986;DHT22;58645;43.068;25.610;2023-06-14T14:55:01;27.10;60.90
70986;DHT22;58645;43.068;25.610;2023-06-14T14:57:28;27.10;61.70
70986;DHT22;58645;43.068;25.610;2023-06-14T14:59:55;27.10;61.60
70986;DHT22;58645;43.068;25.610;2023-06-14T15:02:21;27.10;62.00
70986;DHT22;58645;43.068;25.610;2023-06-14T15:04:48;27.10;61.80
70986;DHT22;58645;43.068;25.610;2023-06-14T15:07:13;27.00;61.30
70986;DHT22;58645;43.068;25.610;2023-06-14T15:09:39;27.00;62.60
70986;DHT22;58645;43.068;25.610;2023-06-14T15:12:06;27.10;62.50
70986;DHT22;58645;43.068;25.610;2023-06-14T15:14:32;26.90;62.40
70986;DHT22;58645;43.068;25.610;2023-06-14T15:16:59;27.00;63.00
70986;DHT22;58645;43.068;25.610;2023-06-14T15:19:27;26.70;63.00
70986;DHT22;58645;43.068;25.610;2023-06-14T15:21:52;26.60;63.50
70986;DHT22;58645;43.068;25.610;2023-06-14T15:24:18;26.60;63.10
70986;DHT22;58645;43.068;25.610;2023-06-14T15:26:44;26.50;63.10
70986;DHT22;58645;43.068;25.610;2023-06-14T15:29:09;26.50;63.00
70986;DHT22;58645;43.068;25.610;2023-06-14T15:31:35;26.30;62.60
70986;DHT22;58645;43.068;25.610;2023-06-14T15:34:01;26.30;63.60
70986;DHT22;58645;43.068;25.610;2023-06-14T15:36:26;26.30;64.10
70986;DHT22;58645;43.068;25.610;2023-06-14T15:38:53;26.20;64.10
70986;DHT22;58645;43.068;25.610;2023-06-14T15:41:18;26.20;63.70
70986;DHT22;58645;43.068;25.610;2023-06-14T15:43:44;26.20;64.10
70986;DHT22;58645;43.068;25.610;2023-06-14T15:46:10;26.10;64.30
70986;DHT22;58645;43.068;25.610;2023-06-14T15:48:35;26.10;64.60
70986;DHT22;58645;43.068;25.610;2023-06-14T15:51:01;26.10;65.20
70986;DHT22;58645;43.068;25.610;2023-06-14T15:53:27;25.90;65.20